createdAt,value
2017-11-15T00:00:24.124Z,0
2017-11-15T00:01:24.384Z,0
2017-11-15T00:02:24.413Z,0
2017-11-15T00:03:24.440Z,0
2017-11-15T00:04:24.632Z,0
2017-11-15T00:05:23.898Z,0
2017-11-15T00:06:23.923Z,0
2017-11-15T00:07:24.199Z,0
2017-11-15T00:08:24.208Z,0
2017-11-15T00:09:24.211Z,0
2017-11-15T00:10:24.237Z,0
2017-11-15T00:11:24.539Z,0
2017-11-15T00:12:23.986Z,0
2017-11-15T00:13:24.269Z,0
2017-11-15T00:14:24.023Z,0
2017-11-15T00:15:24.306Z,0
2017-11-15T00:16:24.576Z,0
2017-11-15T00:17:24.591Z,0
2017-11-15T00:18:24.069Z,0
2017-11-15T00:19:24.356Z,0
2017-11-15T00:20:24.627Z,0
2017-11-15T00:21:24.371Z,0
2017-11-15T00:22:24.387Z,0
2017-11-15T00:23:24.412Z,0
2017-11-15T00:24:24.685Z,0
2017-11-15T00:25:24.437Z,0
2017-11-15T00:26:24.449Z,0
2017-11-15T00:27:24.728Z,0
2017-11-15T00:28:24.198Z,0
2017-11-15T00:29:23.937Z,0
2017-11-15T00:30:24.774Z,0
2017-11-15T00:31:24.500Z,0
2017-11-15T00:32:24.534Z,0
2017-11-15T00:33:24.525Z,0
2017-11-15T00:34:24.807Z,0
2017-11-15T00:35:24.590Z,0
2017-11-15T00:36:24.037Z,0
2017-11-15T00:37:24.869Z,0
2017-11-15T00:38:24.598Z,0
2017-11-15T00:39:24.607Z,0
2017-11-15T00:40:24.615Z,0
2017-11-15T00:41:24.906Z,0
2017-11-15T00:42:24.377Z,0
2017-11-15T00:43:24.664Z,0
2017-11-15T00:44:24.947Z,0
2017-11-15T00:45:24.690Z,0
2017-11-15T00:46:24.697Z,0
2017-11-15T00:47:24.711Z,0
2017-11-15T00:48:24.725Z,0
2017-11-15T00:49:25.014Z,0
2017-11-15T00:50:25.020Z,0
2017-11-15T00:51:24.758Z,0
2017-11-15T00:52:25.048Z,0
2017-11-15T00:53:25.061Z,0
2017-11-15T00:54:24.839Z,0
2017-11-15T00:55:24.814Z,0
2017-11-15T00:56:25.126Z,0
2017-11-15T00:57:25.118Z,0
2017-11-15T00:58:24.870Z,0
2017-11-15T00:59:25.157Z,0
2017-11-15T01:00:24.891Z,0
2017-11-15T01:01:25.357Z,0
2017-11-15T01:02:25.193Z,0
2017-11-15T01:03:25.181Z,0
2017-11-15T01:04:25.194Z,0
2017-11-15T01:05:24.941Z,0
2017-11-15T01:06:24.680Z,0
2017-11-15T01:07:24.960Z,0
2017-11-15T01:08:24.976Z,0
2017-11-15T01:09:25.255Z,0
2017-11-15T01:10:25.005Z,0
2017-11-15T01:11:25.012Z,0
2017-11-15T01:12:24.779Z,0
2017-11-15T01:13:25.034Z,0
2017-11-15T01:14:24.814Z,0
2017-11-15T01:15:25.366Z,0
2017-11-15T01:16:25.089Z,0
2017-11-15T01:17:24.842Z,0
2017-11-15T01:18:24.857Z,0
2017-11-15T01:19:25.408Z,0
2017-11-15T01:20:25.133Z,0
2017-11-15T01:21:24.873Z,0
2017-11-15T01:22:25.445Z,0
2017-11-15T01:23:25.662Z,0
2017-11-15T01:24:25.202Z,0
2017-11-15T01:25:25.226Z,0
2017-11-15T01:26:25.210Z,0
2017-11-15T01:27:25.493Z,0
2017-11-15T01:28:25.499Z,0
2017-11-15T01:29:25.526Z,0
2017-11-15T01:30:25.272Z,0
2017-11-15T01:31:25.283Z,0
2017-11-15T01:32:25.300Z,0
2017-11-15T01:33:25.322Z,0
2017-11-15T01:34:25.327Z,0
2017-11-15T01:35:25.611Z,0
2017-11-15T01:36:25.084Z,0
2017-11-15T01:37:25.635Z,0
2017-11-15T01:38:25.389Z,0
2017-11-15T01:39:25.685Z,0
2017-11-15T01:40:25.411Z,0
2017-11-15T01:41:25.409Z,0
2017-11-15T01:42:25.424Z,0
2017-11-15T01:43:25.706Z,0
2017-11-15T01:44:25.182Z,0
2017-11-15T01:45:25.748Z,0
2017-11-15T01:46:25.485Z,0
2017-11-15T01:47:25.770Z,0
2017-11-15T01:48:25.505Z,0
2017-11-15T01:49:25.517Z,0
2017-11-15T01:50:25.798Z,0
2017-11-15T01:51:25.545Z,0
2017-11-15T01:52:25.831Z,0
2017-11-15T01:53:25.844Z,0
2017-11-15T01:54:25.577Z,0
2017-11-15T01:55:25.638Z,0
2017-11-15T01:56:25.607Z,0
2017-11-15T01:57:25.623Z,0
2017-11-15T01:58:25.905Z,0
2017-11-15T01:59:25.645Z,0
2017-11-15T02:00:25.945Z,0
2017-11-15T02:01:25.667Z,0
2017-11-15T02:02:25.693Z,0
2017-11-15T02:03:25.690Z,0
2017-11-15T02:04:25.433Z,0
2017-11-15T02:05:25.707Z,0
2017-11-15T02:06:25.997Z,0
2017-11-15T02:07:26.012Z,0
2017-11-15T02:08:25.491Z,0
2017-11-15T02:09:25.780Z,0
2017-11-15T02:10:26.194Z,0
2017-11-15T02:11:25.792Z,0
2017-11-15T02:12:25.532Z,0
2017-11-15T02:13:25.816Z,0
2017-11-15T02:14:26.114Z,0
2017-11-15T02:15:26.113Z,0
2017-11-15T02:16:26.127Z,0
2017-11-15T02:17:25.865Z,0
2017-11-15T02:18:25.910Z,0
2017-11-15T02:19:25.902Z,0
2017-11-15T02:20:25.643Z,0
2017-11-15T02:21:26.192Z,0
2017-11-15T02:22:26.196Z,0
2017-11-15T02:23:26.230Z,0
2017-11-15T02:24:26.233Z,0
2017-11-15T02:25:25.971Z,0
2017-11-15T02:26:25.996Z,0
2017-11-15T02:27:26.283Z,0
2017-11-15T02:28:26.285Z,0
2017-11-15T02:29:25.753Z,0
2017-11-15T02:30:26.331Z,0
2017-11-15T02:31:26.325Z,0
2017-11-15T02:32:26.070Z,0
2017-11-15T02:33:26.341Z,0
2017-11-15T02:34:26.368Z,0
2017-11-15T02:35:26.104Z,0
2017-11-15T02:36:25.845Z,0
2017-11-15T02:37:26.402Z,0
2017-11-15T02:38:26.187Z,0
2017-11-15T02:39:26.463Z,0
2017-11-15T02:40:26.449Z,0
2017-11-15T02:41:26.478Z,0
2017-11-15T02:42:26.168Z,0
2017-11-15T02:43:25.936Z,0
2017-11-15T02:44:26.531Z,0
2017-11-15T02:45:26.243Z,0
2017-11-15T02:46:25.972Z,0
2017-11-15T02:47:25.988Z,0
2017-11-15T02:48:26.548Z,0
2017-11-15T02:49:26.560Z,0
2017-11-15T02:50:26.028Z,0
2017-11-15T02:51:26.813Z,0
2017-11-15T02:52:26.333Z,0
2017-11-15T02:53:26.614Z,0
2017-11-15T02:54:26.352Z,0
2017-11-15T02:55:26.360Z,0
2017-11-15T02:56:26.659Z,0
2017-11-15T02:57:26.655Z,0
2017-11-15T02:58:26.396Z,0
2017-11-15T02:59:26.407Z,0
2017-11-15T03:00:26.715Z,0
2017-11-15T03:01:26.449Z,0
2017-11-15T03:02:26.718Z,0
2017-11-15T03:03:26.478Z,0
2017-11-15T03:04:26.468Z,0
2017-11-15T03:05:26.522Z,0
2017-11-15T03:06:26.776Z,0
2017-11-15T03:07:26.526Z,0
2017-11-15T03:08:26.251Z,0
2017-11-15T03:09:26.546Z,0
2017-11-15T03:10:26.814Z,0
2017-11-15T03:11:26.560Z,0
2017-11-15T03:12:26.871Z,0
2017-11-15T03:13:26.319Z,0
2017-11-15T03:14:26.329Z,0
2017-11-15T03:15:26.614Z,0
2017-11-15T03:16:26.355Z,0
2017-11-15T03:17:26.915Z,0
2017-11-15T03:18:26.655Z,0
2017-11-15T03:19:26.933Z,0
2017-11-15T03:20:26.950Z,0
2017-11-15T03:21:26.957Z,0
2017-11-15T03:22:26.982Z,0
2017-11-15T03:23:26.986Z,0
2017-11-15T03:24:26.999Z,0
2017-11-15T03:25:27.058Z,0
2017-11-15T03:26:26.760Z,0
2017-11-15T03:27:26.775Z,0
2017-11-15T03:28:26.514Z,0
2017-11-15T03:29:27.084Z,0
2017-11-15T03:30:27.085Z,0
2017-11-15T03:31:27.210Z,0
2017-11-15T03:32:26.564Z,0
2017-11-15T03:33:26.848Z,0
2017-11-15T03:34:26.868Z,0
2017-11-15T03:35:27.144Z,0
2017-11-15T03:36:26.893Z,0
2017-11-15T03:37:26.895Z,0
2017-11-15T03:38:27.184Z,0
2017-11-15T03:39:26.920Z,0
2017-11-15T03:40:27.213Z,0
2017-11-15T03:41:27.219Z,0
2017-11-15T03:42:27.239Z,0
2017-11-15T03:43:27.267Z,0
2017-11-15T03:44:27.268Z,0
2017-11-15T03:45:26.459Z,0
2017-11-15T03:46:27.026Z,0
2017-11-15T03:47:27.043Z,0
2017-11-15T03:48:27.303Z,0
2017-11-15T03:49:27.353Z,0
2017-11-15T03:50:27.073Z,0
2017-11-15T03:51:27.076Z,0
2017-11-15T03:52:27.361Z,0
2017-11-15T03:53:27.385Z,0
2017-11-15T03:54:27.123Z,0
2017-11-15T03:55:27.415Z,0
2017-11-15T03:56:27.351Z,0
2017-11-15T03:57:27.188Z,0
2017-11-15T03:58:27.436Z,0
2017-11-15T03:59:27.450Z,0
2017-11-15T04:00:27.187Z,0
2017-11-15T04:01:27.483Z,0
2017-11-15T04:02:27.228Z,0
2017-11-15T04:03:26.966Z,0
2017-11-15T04:04:27.531Z,0
2017-11-15T04:05:27.351Z,0
2017-11-15T04:06:27.267Z,0
2017-11-15T04:07:27.557Z,0
2017-11-15T04:08:27.023Z,0
2017-11-15T04:09:27.035Z,0
2017-11-15T04:10:27.806Z,0
2017-11-15T04:11:27.610Z,0
2017-11-15T04:12:27.349Z,0
2017-11-15T04:13:27.483Z,0
2017-11-15T04:14:27.370Z,0
2017-11-15T04:15:27.868Z,0
2017-11-15T04:16:27.403Z,0
2017-11-15T04:17:27.693Z,0
2017-11-15T04:18:27.152Z,0
2017-11-15T04:19:27.709Z,0
2017-11-15T04:20:27.181Z,0
2017-11-15T04:21:27.477Z,0
2017-11-15T04:22:27.488Z,0
2017-11-15T04:23:27.794Z,0
2017-11-15T04:24:27.531Z,0
2017-11-15T04:25:27.809Z,0
2017-11-15T04:26:27.801Z,0
2017-11-15T04:27:27.540Z,0
2017-11-15T04:28:27.821Z,0
2017-11-15T04:29:27.574Z,0
2017-11-15T04:30:27.308Z,0
2017-11-15T04:31:27.876Z,0
2017-11-15T04:32:27.613Z,0
2017-11-15T04:33:27.623Z,0
2017-11-15T04:34:27.926Z,0
2017-11-15T04:35:27.639Z,0
2017-11-15T04:36:27.952Z,0
2017-11-15T04:37:27.670Z,0
2017-11-15T04:38:27.682Z,0
2017-11-15T04:39:27.710Z,0
2017-11-15T04:40:27.980Z,0
2017-11-15T04:41:27.730Z,0
2017-11-15T04:42:27.738Z,0
2017-11-15T04:43:28.035Z,0
2017-11-15T04:44:28.057Z,0
2017-11-15T04:45:27.783Z,0
2017-11-15T04:46:27.524Z,0
2017-11-15T04:47:27.797Z,0
2017-11-15T04:48:27.822Z,0
2017-11-15T04:49:27.834Z,0
2017-11-15T04:50:27.849Z,0
2017-11-15T04:51:27.579Z,0
2017-11-15T04:52:28.135Z,0
2017-11-15T04:53:28.148Z,0
2017-11-15T04:54:27.905Z,0
2017-11-15T04:55:27.632Z,0
2017-11-15T04:56:27.918Z,0
2017-11-15T04:57:28.202Z,0
2017-11-15T04:58:27.689Z,0
2017-11-15T04:59:27.957Z,0
2017-11-15T05:00:28.253Z,0
2017-11-15T05:01:27.981Z,0
2017-11-15T05:02:28.270Z,0
2017-11-15T05:03:28.020Z,0
2017-11-15T05:04:28.025Z,0
2017-11-15T05:05:27.766Z,0
2017-11-15T05:06:28.310Z,0
2017-11-15T05:07:28.061Z,0
2017-11-15T05:08:28.088Z,0
2017-11-15T05:09:28.396Z,0
2017-11-15T05:10:27.847Z,0
2017-11-15T05:11:27.860Z,0
2017-11-15T05:12:27.858Z,0
2017-11-15T05:13:28.152Z,0
2017-11-15T05:14:27.879Z,0
2017-11-15T05:15:27.901Z,0
2017-11-15T05:16:28.182Z,0
2017-11-15T05:17:27.921Z,0
2017-11-15T05:18:28.480Z,0
2017-11-15T05:19:28.484Z,0
2017-11-15T05:20:27.959Z,0
2017-11-15T05:21:27.981Z,0
2017-11-15T05:22:28.262Z,0
2017-11-15T05:23:28.291Z,0
2017-11-15T05:24:28.279Z,0
2017-11-15T05:25:28.565Z,0
2017-11-15T05:26:28.319Z,0
2017-11-15T05:27:28.051Z,0
2017-11-15T05:28:28.608Z,0
2017-11-15T05:29:28.631Z,0
2017-11-15T05:30:28.643Z,0
2017-11-15T05:31:28.381Z,0
2017-11-15T05:32:28.390Z,0
2017-11-15T05:33:28.407Z,0
2017-11-15T05:34:28.410Z,0
2017-11-15T05:35:28.435Z,0
2017-11-15T05:36:28.443Z,0
2017-11-15T05:37:28.453Z,0
2017-11-15T05:38:28.733Z,0
2017-11-15T05:39:28.471Z,0
2017-11-15T05:40:28.754Z,0
2017-11-15T05:41:28.508Z,0
2017-11-15T05:42:28.531Z,0
2017-11-15T05:43:28.805Z,0
2017-11-15T05:44:28.544Z,0
2017-11-15T05:45:28.552Z,0
2017-11-15T05:46:28.301Z,0
2017-11-15T05:47:28.870Z,0
2017-11-15T05:48:28.600Z,0
2017-11-15T05:49:28.612Z,0
2017-11-15T05:50:28.888Z,0
2017-11-15T05:51:28.641Z,0
2017-11-15T05:52:28.109Z,0
2017-11-15T05:53:28.658Z,0
2017-11-15T05:54:28.679Z,0
2017-11-15T05:55:28.681Z,0
2017-11-15T05:56:28.969Z,0
2017-11-15T05:57:28.728Z,0
2017-11-15T05:58:29.008Z,0
2017-11-15T05:59:28.733Z,0
2017-11-15T06:00:29.066Z,0
2017-11-15T06:01:29.037Z,0
2017-11-15T06:02:28.779Z,0
2017-11-15T06:03:28.791Z,0
2017-11-15T06:04:28.537Z,0
2017-11-15T06:05:28.552Z,0
2017-11-15T06:06:28.843Z,4
2017-11-15T06:07:28.574Z,0
2017-11-15T06:08:29.131Z,0
2017-11-15T06:09:29.033Z,4
2017-11-15T06:10:28.728Z,0
2017-11-15T06:11:29.433Z,0
2017-11-15T06:12:29.232Z,4
2017-11-15T06:13:29.020Z,0
2017-11-15T06:14:29.107Z,4
2017-11-15T06:15:29.541Z,4
2017-11-15T06:16:29.509Z,4
2017-11-15T06:17:29.398Z,4
2017-11-15T06:18:29.404Z,8
2017-11-15T06:19:29.191Z,8
2017-11-15T06:20:28.822Z,8
2017-11-15T06:21:29.377Z,8
2017-11-15T06:22:29.723Z,12
2017-11-15T06:23:29.724Z,12
2017-11-15T06:24:29.579Z,12
2017-11-15T06:25:29.704Z,12
2017-11-15T06:26:29.254Z,16
2017-11-15T06:27:29.571Z,16
2017-11-15T06:28:29.285Z,20
2017-11-15T06:29:29.473Z,20
2017-11-15T06:30:29.220Z,24
2017-11-15T06:31:29.819Z,28
2017-11-15T06:32:29.727Z,32
2017-11-15T06:33:29.671Z,36
2017-11-15T06:34:29.312Z,40
2017-11-15T06:35:29.380Z,40
2017-11-15T06:36:29.510Z,44
2017-11-15T06:37:29.366Z,48
2017-11-15T06:38:29.525Z,52
2017-11-15T06:39:28.718Z,52
2017-11-15T06:40:29.282Z,52
2017-11-15T06:41:29.555Z,56
2017-11-15T06:42:28.760Z,68
2017-11-15T06:43:29.322Z,68
2017-11-15T06:44:29.653Z,60
2017-11-15T06:45:29.334Z,60
2017-11-15T06:46:29.356Z,72
2017-11-15T06:47:29.088Z,88
2017-11-15T06:48:29.106Z,88
2017-11-15T06:49:29.387Z,88
2017-11-15T06:50:29.410Z,80
2017-11-15T06:51:29.695Z,80
2017-11-15T06:52:29.436Z,88
2017-11-15T06:53:29.453Z,104
2017-11-15T06:54:29.455Z,104
2017-11-15T06:55:29.467Z,88
2017-11-15T06:56:29.762Z,100
2017-11-15T06:57:29.763Z,124
2017-11-15T06:58:29.789Z,132
2017-11-15T06:59:29.793Z,136
2017-11-15T07:00:29.531Z,136
2017-11-15T07:01:29.814Z,140
2017-11-15T07:02:29.835Z,144
2017-11-15T07:03:29.573Z,148
2017-11-15T07:04:29.602Z,156
2017-11-15T07:05:29.872Z,148
2017-11-15T07:06:29.070Z,128
2017-11-15T07:07:29.626Z,136
2017-11-15T07:08:29.901Z,148
2017-11-15T07:09:29.648Z,156
2017-11-15T07:10:29.672Z,152
2017-11-15T07:11:29.680Z,140
2017-11-15T07:12:29.684Z,144
2017-11-15T07:13:29.710Z,156
2017-11-15T07:14:29.451Z,168
2017-11-15T07:15:29.997Z,156
2017-11-15T07:16:30.034Z,144
2017-11-15T07:17:29.751Z,160
2017-11-15T07:18:30.039Z,176
2017-11-15T07:19:29.782Z,180
2017-11-15T07:20:29.808Z,192
2017-11-15T07:21:30.087Z,196
2017-11-15T07:22:29.824Z,200
2017-11-15T07:23:30.101Z,208
2017-11-15T07:24:30.124Z,212
2017-11-15T07:25:29.881Z,216
2017-11-15T07:26:30.339Z,240
2017-11-15T07:27:29.630Z,256
2017-11-15T07:28:29.644Z,256
2017-11-15T07:29:29.919Z,244
2017-11-15T07:30:29.922Z,244
2017-11-15T07:31:30.223Z,252
2017-11-15T07:32:29.958Z,256
2017-11-15T07:33:30.292Z,240
2017-11-15T07:34:30.019Z,224
2017-11-15T07:35:29.731Z,212
2017-11-15T07:36:30.011Z,220
2017-11-15T07:37:30.023Z,260
2017-11-15T07:38:30.301Z,280
2017-11-15T07:39:30.326Z,268
2017-11-15T07:40:29.788Z,268
2017-11-15T07:41:30.388Z,296
2017-11-15T07:42:30.363Z,312
2017-11-15T07:43:30.420Z,292
2017-11-15T07:44:30.379Z,268
2017-11-15T07:45:30.405Z,256
2017-11-15T07:46:30.425Z,312
2017-11-15T07:47:30.159Z,368
2017-11-15T07:48:30.176Z,404
2017-11-15T07:49:30.183Z,412
2017-11-15T07:50:30.200Z,424
2017-11-15T07:51:30.482Z,432
2017-11-15T07:52:30.226Z,440
2017-11-15T07:53:30.231Z,444
2017-11-15T07:54:30.509Z,456
2017-11-15T07:55:30.019Z,452
2017-11-15T07:56:29.731Z,436
2017-11-15T07:57:30.304Z,432
2017-11-15T07:58:30.567Z,420
2017-11-15T07:59:30.583Z,388
2017-11-15T08:00:30.331Z,376
2017-11-15T08:01:30.361Z,380
2017-11-15T08:02:30.625Z,376
2017-11-15T08:03:30.368Z,364
2017-11-15T08:04:30.650Z,364
2017-11-15T08:05:30.666Z,348
2017-11-15T08:06:30.673Z,324
2017-11-15T08:07:30.415Z,320
2017-11-15T08:08:30.702Z,344
2017-11-15T08:09:30.708Z,384
2017-11-15T08:10:30.456Z,416
2017-11-15T08:11:30.466Z,448
2017-11-15T08:12:30.820Z,484
2017-11-15T08:13:30.513Z,484
2017-11-15T08:14:30.800Z,484
2017-11-15T08:15:30.522Z,500
2017-11-15T08:16:30.821Z,508
2017-11-15T08:17:30.828Z,496
2017-11-15T08:18:30.852Z,492
2017-11-15T08:19:30.579Z,492
2017-11-15T08:20:30.865Z,484
2017-11-15T08:21:30.897Z,472
2017-11-15T08:22:30.891Z,460
2017-11-15T08:23:30.640Z,456
2017-11-15T08:24:30.651Z,460
2017-11-15T08:25:30.668Z,464
2017-11-15T08:26:30.944Z,472
2017-11-15T08:27:30.687Z,484
2017-11-15T08:28:31.002Z,492
2017-11-15T08:29:30.719Z,500
2017-11-15T08:30:30.716Z,504
2017-11-15T08:31:30.745Z,508
2017-11-15T08:32:30.758Z,516
2017-11-15T08:33:31.058Z,520
2017-11-15T08:34:30.790Z,540
2017-11-15T08:35:30.809Z,564
2017-11-15T08:36:31.070Z,588
2017-11-15T08:37:31.087Z,580
2017-11-15T08:38:30.566Z,544
2017-11-15T08:39:30.848Z,496
2017-11-15T08:40:30.865Z,472
2017-11-15T08:41:30.884Z,492
2017-11-15T08:42:30.900Z,556
2017-11-15T08:43:31.177Z,632
2017-11-15T08:44:31.181Z,708
2017-11-15T08:45:30.929Z,768
2017-11-15T08:46:30.720Z,780
2017-11-15T08:47:31.221Z,772
2017-11-15T08:48:31.255Z,768
2017-11-15T08:49:30.983Z,748
2017-11-15T08:50:30.996Z,716
2017-11-15T08:51:31.014Z,688
2017-11-15T08:52:31.014Z,684
2017-11-15T08:53:31.046Z,680
2017-11-15T08:54:31.042Z,664
2017-11-15T08:55:31.375Z,648
2017-11-15T08:56:30.831Z,624
2017-11-15T08:57:31.144Z,624
2017-11-15T08:58:31.116Z,588
2017-11-15T08:59:31.384Z,548
2017-11-15T09:00:31.414Z,512
2017-11-15T09:01:31.413Z,548
2017-11-15T09:02:31.443Z,508
2017-11-15T09:03:31.174Z,568
2017-11-15T09:04:30.911Z,688
2017-11-15T09:05:31.474Z,788
2017-11-15T09:06:31.213Z,784
2017-11-15T09:07:31.513Z,792
2017-11-15T09:08:31.261Z,800
2017-11-15T09:09:31.276Z,812
2017-11-15T09:10:31.265Z,840
2017-11-15T09:11:31.014Z,856
2017-11-15T09:12:31.292Z,876
2017-11-15T09:13:31.328Z,900
2017-11-15T09:14:31.341Z,916
2017-11-15T09:15:31.345Z,920
2017-11-15T09:16:31.083Z,892
2017-11-15T09:17:31.366Z,868
2017-11-15T09:18:31.656Z,888
2017-11-15T09:19:31.387Z,872
2017-11-15T09:20:31.677Z,816
2017-11-15T09:21:31.701Z,792
2017-11-15T09:22:31.706Z,828
2017-11-15T09:23:31.179Z,800
2017-11-15T09:24:31.192Z,796
2017-11-15T09:25:31.495Z,820
2017-11-15T09:26:31.768Z,792
2017-11-15T09:27:31.771Z,764
2017-11-15T09:28:31.520Z,728
2017-11-15T09:29:31.554Z,712
2017-11-15T09:30:31.815Z,680
2017-11-15T09:31:31.830Z,664
2017-11-15T09:32:31.574Z,644
2017-11-15T09:33:31.594Z,604
2017-11-15T09:34:31.881Z,556
2017-11-15T09:35:31.885Z,516
2017-11-15T09:36:31.634Z,484
2017-11-15T09:37:31.912Z,476
2017-11-15T09:38:31.393Z,496
2017-11-15T09:39:31.949Z,508
2017-11-15T09:40:31.951Z,524
2017-11-15T09:41:31.964Z,516
2017-11-15T09:42:32.034Z,456
2017-11-15T09:43:31.464Z,512
2017-11-15T09:44:31.757Z,504
2017-11-15T09:45:32.030Z,492
2017-11-15T09:46:31.769Z,492
2017-11-15T09:47:31.775Z,488
2017-11-15T09:48:32.065Z,460
2017-11-15T09:49:31.804Z,392
2017-11-15T09:50:31.826Z,324
2017-11-15T09:51:31.572Z,308
2017-11-15T09:52:32.121Z,312
2017-11-15T09:53:32.134Z,324
2017-11-15T09:54:32.158Z,340
2017-11-15T09:55:32.164Z,364
2017-11-15T09:56:31.915Z,400
2017-11-15T09:57:32.210Z,428
2017-11-15T09:58:31.931Z,460
2017-11-15T09:59:31.676Z,488
2017-11-15T10:00:32.229Z,524
2017-11-15T10:01:32.268Z,616
2017-11-15T10:02:32.003Z,756
2017-11-15T10:03:32.030Z,804
2017-11-15T10:04:32.291Z,784
2017-11-15T10:05:32.299Z,748
2017-11-15T10:06:31.773Z,728
2017-11-15T10:07:32.058Z,760
2017-11-15T10:08:32.087Z,840
2017-11-15T10:09:32.080Z,944
2017-11-15T10:10:31.834Z,1076
2017-11-15T10:11:32.118Z,1216
2017-11-15T10:12:32.411Z,1400
2017-11-15T10:13:32.422Z,1592
2017-11-15T10:14:32.437Z,1700
2017-11-15T10:15:32.438Z,1640
2017-11-15T10:16:32.456Z,1472
2017-11-15T10:17:32.467Z,1480
2017-11-15T10:18:32.470Z,1520
2017-11-15T10:19:32.501Z,1528
2017-11-15T10:20:32.273Z,1460
2017-11-15T10:21:32.528Z,1412
2017-11-15T10:22:32.540Z,1432
2017-11-15T10:23:32.281Z,1420
2017-11-15T10:24:32.295Z,1412
2017-11-15T10:25:32.572Z,1428
2017-11-15T10:26:32.330Z,1420
2017-11-15T10:27:32.615Z,1360
2017-11-15T10:28:32.630Z,1316
2017-11-15T10:29:32.645Z,1296
2017-11-15T10:30:32.644Z,1308
2017-11-15T10:31:32.686Z,1332
2017-11-15T10:32:32.408Z,1392
2017-11-15T10:33:32.694Z,1420
2017-11-15T10:34:32.441Z,1404
2017-11-15T10:35:32.716Z,1360
2017-11-15T10:36:32.754Z,1316
2017-11-15T10:37:32.762Z,1272
2017-11-15T10:38:32.765Z,1236
2017-11-15T10:39:32.789Z,1208
2017-11-15T10:40:32.522Z,1192
2017-11-15T10:41:32.812Z,1148
2017-11-15T10:42:32.867Z,1132
2017-11-15T10:43:32.841Z,1128
2017-11-15T10:44:32.582Z,1136
2017-11-15T10:45:32.870Z,1112
2017-11-15T10:46:32.893Z,1112
2017-11-15T10:47:32.925Z,1132
2017-11-15T10:48:32.654Z,1192
2017-11-15T10:49:32.661Z,1272
2017-11-15T10:50:32.947Z,1200
2017-11-15T10:51:32.959Z,1224
2017-11-15T10:52:32.720Z,1276
2017-11-15T10:53:32.985Z,1264
2017-11-15T10:54:32.454Z,1244
2017-11-15T10:55:33.003Z,1216
2017-11-15T10:56:33.044Z,1316
2017-11-15T10:57:33.050Z,1316
2017-11-15T10:58:32.796Z,1208
2017-11-15T10:59:32.533Z,1248
2017-11-15T11:00:33.081Z,1264
2017-11-15T11:01:32.834Z,1200
2017-11-15T11:02:32.885Z,1264
2017-11-15T11:03:33.135Z,1268
2017-11-15T11:04:32.882Z,1296
2017-11-15T11:05:33.152Z,1240
2017-11-15T11:06:32.900Z,1240
2017-11-15T11:07:33.187Z,1328
2017-11-15T11:08:32.932Z,1412
2017-11-15T11:09:32.954Z,1384
2017-11-15T11:10:33.231Z,1352
2017-11-15T11:11:33.551Z,1420
2017-11-15T11:12:32.724Z,1420
2017-11-15T11:13:33.270Z,1312
2017-11-15T11:14:33.017Z,1256
2017-11-15T11:15:32.495Z,1216
2017-11-15T11:16:33.066Z,1164
2017-11-15T11:17:33.363Z,1176
2017-11-15T11:18:32.813Z,1180
2017-11-15T11:19:33.370Z,1100
2017-11-15T11:20:33.446Z,1012
2017-11-15T11:21:33.130Z,996
2017-11-15T11:22:33.418Z,1120
2017-11-15T11:23:33.421Z,1212
2017-11-15T11:24:33.175Z,1196
2017-11-15T11:25:33.193Z,1172
2017-11-15T11:26:33.210Z,1180
2017-11-15T11:27:33.505Z,1140
2017-11-15T11:28:33.226Z,1112
2017-11-15T11:29:32.994Z,1096
2017-11-15T11:30:33.535Z,1096
2017-11-15T11:31:33.010Z,1132
2017-11-15T11:32:33.298Z,1164
2017-11-15T11:33:33.319Z,1184
2017-11-15T11:34:33.598Z,1204
2017-11-15T11:35:33.338Z,1196
2017-11-15T11:36:33.630Z,1176
2017-11-15T11:37:33.367Z,1132
2017-11-15T11:38:33.660Z,1148
2017-11-15T11:39:33.668Z,1188
2017-11-15T11:40:33.720Z,1180
2017-11-15T11:41:33.437Z,1236
2017-11-15T11:42:33.714Z,1288
2017-11-15T11:43:33.458Z,1264
2017-11-15T11:44:33.752Z,1256
2017-11-15T11:45:33.787Z,1284
2017-11-15T11:46:33.793Z,1316
2017-11-15T11:47:33.256Z,1336
2017-11-15T11:48:33.806Z,1348
2017-11-15T11:49:33.829Z,1360
2017-11-15T11:50:33.842Z,1284
2017-11-15T11:51:33.316Z,1200
2017-11-15T11:52:33.869Z,1264
2017-11-15T11:53:33.618Z,1356
2017-11-15T11:54:33.629Z,1368
2017-11-15T11:55:33.643Z,1368
2017-11-15T11:56:33.672Z,1344
2017-11-15T11:57:33.671Z,1212
2017-11-15T11:58:33.961Z,1108
2017-11-15T11:59:33.706Z,1088
2017-11-15T12:00:33.723Z,1164
2017-11-15T12:01:33.736Z,968
2017-11-15T12:02:33.209Z,972
2017-11-15T12:03:34.036Z,1076
2017-11-15T12:04:33.777Z,1080
2017-11-15T12:05:33.798Z,1244
2017-11-15T12:06:33.826Z,1196
2017-11-15T12:07:34.103Z,1176
2017-11-15T12:08:34.122Z,1100
2017-11-15T12:09:33.867Z,920
2017-11-15T12:10:34.154Z,832
2017-11-15T12:11:33.903Z,740
2017-11-15T12:12:33.905Z,656
2017-11-15T12:13:34.202Z,628
2017-11-15T12:14:33.939Z,632
2017-11-15T12:15:33.952Z,600
2017-11-15T12:16:33.969Z,600
2017-11-15T12:17:34.003Z,548
2017-11-15T12:18:34.007Z,564
2017-11-15T12:19:33.746Z,676
2017-11-15T12:20:34.299Z,696
2017-11-15T12:21:34.048Z,724
2017-11-15T12:22:34.060Z,656
2017-11-15T12:23:34.367Z,624
2017-11-15T12:24:34.405Z,616
2017-11-15T12:25:34.115Z,664
2017-11-15T12:26:34.393Z,672
2017-11-15T12:27:34.136Z,660
2017-11-15T12:28:34.421Z,660
2017-11-15T12:29:34.457Z,640
2017-11-15T12:30:34.457Z,648
2017-11-15T12:31:34.223Z,720
2017-11-15T12:32:34.496Z,760
2017-11-15T12:33:34.243Z,792
2017-11-15T12:34:33.974Z,772
2017-11-15T12:35:34.264Z,756
2017-11-15T12:36:34.550Z,696
2017-11-15T12:37:34.572Z,660
2017-11-15T12:38:34.313Z,536
2017-11-15T12:39:34.345Z,468
2017-11-15T12:40:34.610Z,408
2017-11-15T12:41:34.352Z,444
2017-11-15T12:42:34.657Z,508
2017-11-15T12:43:34.672Z,540
2017-11-15T12:44:34.678Z,540
2017-11-15T12:45:34.689Z,580
2017-11-15T12:46:34.707Z,628
2017-11-15T12:47:34.458Z,624
2017-11-15T12:48:34.196Z,624
2017-11-15T12:49:34.743Z,584
2017-11-15T12:50:34.502Z,548
2017-11-15T12:51:34.820Z,600
2017-11-15T12:52:34.525Z,624
2017-11-15T12:53:34.555Z,644
2017-11-15T12:54:34.569Z,652
2017-11-15T12:55:34.844Z,664
2017-11-15T12:56:34.861Z,700
2017-11-15T12:57:34.864Z,800
2017-11-15T12:58:34.634Z,904
2017-11-15T12:59:34.897Z,944
2017-11-15T13:00:34.693Z,936
2017-11-15T13:01:34.669Z,932
2017-11-15T13:02:34.954Z,944
2017-11-15T13:03:34.701Z,940
2017-11-15T13:04:34.983Z,928
2017-11-15T13:05:34.738Z,916
2017-11-15T13:06:34.791Z,904
2017-11-15T13:07:34.759Z,892
2017-11-15T13:08:35.055Z,896
2017-11-15T13:09:34.790Z,900
2017-11-15T13:10:34.541Z,896
2017-11-15T13:11:35.099Z,892
2017-11-15T13:12:35.106Z,880
2017-11-15T13:13:35.133Z,864
2017-11-15T13:14:34.876Z,856
2017-11-15T13:15:35.153Z,876
2017-11-15T13:16:35.177Z,920
2017-11-15T13:17:34.913Z,956
2017-11-15T13:18:35.209Z,968
2017-11-15T13:19:34.424Z,964
2017-11-15T13:20:34.963Z,956
2017-11-15T13:21:35.243Z,936
2017-11-15T13:22:35.266Z,904
2017-11-15T13:23:35.280Z,872
2017-11-15T13:24:34.765Z,844
2017-11-15T13:25:34.779Z,816
2017-11-15T13:26:35.067Z,800
2017-11-15T13:27:35.398Z,792
2017-11-15T13:28:35.087Z,784
2017-11-15T13:29:35.379Z,780
2017-11-15T13:30:35.389Z,772
2017-11-15T13:31:35.408Z,776
2017-11-15T13:32:35.141Z,776
2017-11-15T13:33:35.450Z,784
2017-11-15T13:34:35.457Z,788
2017-11-15T13:35:35.202Z,784
2017-11-15T13:36:35.484Z,780
2017-11-15T13:37:34.959Z,768
2017-11-15T13:38:35.259Z,768
2017-11-15T13:39:35.526Z,768
2017-11-15T13:40:35.561Z,760
2017-11-15T13:41:35.565Z,752
2017-11-15T13:42:35.580Z,760
2017-11-15T13:43:35.324Z,760
2017-11-15T13:44:35.604Z,736
2017-11-15T13:45:35.359Z,684
2017-11-15T13:46:35.639Z,648
2017-11-15T13:47:35.423Z,648
2017-11-15T13:48:35.682Z,724
2017-11-15T13:49:35.697Z,808
2017-11-15T13:50:35.694Z,840
2017-11-15T13:51:35.179Z,824
2017-11-15T13:52:35.458Z,832
2017-11-15T13:53:35.522Z,840
2017-11-15T13:54:35.494Z,820
2017-11-15T13:55:35.519Z,796
2017-11-15T13:56:35.800Z,800
2017-11-15T13:57:35.813Z,784
2017-11-15T13:58:35.829Z,760
2017-11-15T13:59:35.863Z,740
2017-11-15T14:00:35.317Z,796
2017-11-15T14:01:35.888Z,856
2017-11-15T14:02:35.892Z,820
2017-11-15T14:03:35.921Z,796
2017-11-15T14:04:35.380Z,700
2017-11-15T14:05:35.670Z,644
2017-11-15T14:06:35.684Z,592
2017-11-15T14:07:35.972Z,580
2017-11-15T14:08:35.720Z,764
2017-11-15T14:09:35.743Z,800